Grand Princess — ZCBU5 — position and weather

sailwx.info

Track history (hours):
 
Tides and Currents Weather Stations Pressure Air Temp Water Temp Dewpoint Dewpoint Depression Visibility Wind Speed Wind Dir Waves Ship Positions

Grand Princess

Operator: Princess Cruises

Last reported at 2016-Jul-24 02:00 UTC. Time now 2016-Jul-24 04:50 UTC.
Position N 55°54' W 132°30'.

Length 289.5 m; beam 36 m; draft 8.5 m.

Type: Ship. MMSI: 310327000.

Wind from 140 at 11 knots

Waves 0.5 meters (2 feet), 1 second period

Barometer 1012.3 mb
Air temperature 15.0 ° C
Visibility: greater than 5.4 NM
Dewpoint 13.2 ° C
Water temperature 14.0 ° C

Date/timePositionNaut miles runAvg speedWind from/ knotsBaromVisibWave heightAir tempDewpointWater temp
2016-Jul-24 02:00N 55°54' W 132°30'81 5.4 140 / 111012.3 5.4 0.515.013.214.0
2016-Jul-23 11:00N 54°48' W 131°06'22318.6 1017.010.8 13.011.114.0
2016-Jul-22 23:00N 51°12' W 129°36'21319.4 1023.110.8 0.515.011.316.0
2016-Jul-22 12:00N 47°48' W 128°00'2512.7 310 / 111022.2 5.4 0.515.512.818.0
2016-Jul-22 10:00N 47°24' W 127°48'2035.4 1022.110.8 0.515.512.818.0
2016-Jul-22 09:26N 47°05' W 127°40'9719.2
2016-Jul-22 04:24N 45°33' W 126°58'1918.9
2016-Jul-22 03:24N 45°15' W 126°50'3719.1
2016-Jul-22 01:29N 44°40' W 126°34'5616.0
2016-Jul-21 22:00N 43°48' W 126°06'23420.2 1021.410.8 0.515.514.618.0
2016-Jul-21 10:25N 40°04' W 124°35'1024.4
2016-Jul-21 10:00N 39°54' W 124°30'613.7 350 / 231017.610.8 3.013.011.112.0
2016-Jul-21 09:34N 39°48' W 124°27'5518.4
2016-Jul-21 06:33N 38°57' W 124°02'1918.8
2016-Jul-21 05:33N 38°41' W 123°50'1918.9
2016-Jul-21 04:33N 38°25' W 123°36'1918.7
2016-Jul-21 03:33N 38°10' W 123°21'1818.4
2016-Jul-21 02:33N 37°57' W 123°05'1818.3
2016-Jul-21 01:34N 37°48' W 122°45'1111.1
2016-Jul-21 00:33N 37°48' W 122°31'6 5.5
2016-Jul-20 23:32N 37°48' W 122°24'0 0.0
2016-Jul-20 22:32N 37°48' W 122°24'0 0.0
2016-Jul-20 21:31N 37°48' W 122°24'0 0.0
2016-Jul-20 20:31N 37°48' W 122°24'0 0.0
2016-Jul-20 19:31N 37°48' W 122°24'0 0.0
2016-Jul-20 18:33N 37°48' W 122°24'0 0.0
2016-Jul-20 17:33N 37°48' W 122°24'0 0.0
2016-Jul-20 16:32N 37°48' W 122°24'0 0.0
2016-Jul-20 15:32N 37°48' W 122°24'0 0.0
2016-Jul-20 14:31N 37°48' W 122°24'0 0.1
2016-Jul-20 13:33N 37°48' W 122°24'7 6.8
2016-Jul-20 12:33N 37°47' W 122°32'1212.0
2016-Jul-20 11:33N 37°47' W 122°48'1616.2
2016-Jul-20 10:33N 37°55' W 123°05'1717.5
2016-Jul-20 09:34N 38°07' W 123°21'1717.2
2016-Jul-20 08:33N 38°21' W 123°34'1717.4
2016-Jul-20 07:33N 38°36' W 123°47'1917.6
2016-Jul-20 06:28N 38°52' W 123°60'38919.5
2016-Jul-19 10:33N 45°17' W 125°08'2120.8
2016-Jul-19 09:34N 45°38' W 125°08'2120.9
2016-Jul-19 08:33N 45°59' W 125°10'2020.5
2016-Jul-19 07:34N 46°19' W 125°11'10420.9
2016-Jul-19 02:33N 48°03' W 125°18'5 8.4
2016-Jul-19 02:00N 48°06' W 125°12'1739.7 170 / 121016.110.8 0.515.514.615.0
2016-Jul-19 01:33N 48°23' W 125°08'1818.4
2016-Jul-19 00:33N 48°30' W 124°43'2120.8
2016-Jul-18 23:33N 48°23' W 124°14'2019.5
2016-Jul-18 22:33N 48°16' W 123°46'1414.4
2016-Jul-18 21:33N 48°21' W 123°26'4 3.6
2016-Jul-18 20:25N 48°25' W 123°24'0 0.0
2016-Jul-18 19:31N 48°25' W 123°24'0 0.0
2016-Jul-18 18:33N 48°25' W 123°24'0 0.0
2016-Jul-18 17:33N 48°25' W 123°24'0 0.0
2016-Jul-18 16:32N 48°25' W 123°24'0 0.0
2016-Jul-18 15:32N 48°25' W 123°24'0 0.0
2016-Jul-18 14:32N 48°25' W 123°24'0 0.2
2016-Jul-18 13:33N 48°25' W 123°24'1111.1
2016-Jul-18 12:33N 48°14' W 123°28'1514.5
2016-Jul-18 11:33N 48°13' W 123°50'1515.5
2016-Jul-18 10:33N 48°19' W 124°12'1615.9
2016-Jul-18 09:33N 48°25' W 124°33'1615.7
2016-Jul-18 08:31N 48°29' W 124°57'1515.7
2016-Jul-18 07:34N 48°33' W 125°19'1616.4
2016-Jul-18 06:34N 48°42' W 125°40'1616.4
2016-Jul-18 05:34N 48°52' W 125°60'1717.0
2016-Jul-18 04:33N 49°02' W 126°21'1717.2
2016-Jul-18 03:34N 49°11' W 126°42'1817.4
2016-Jul-18 02:32N 49°22' W 127°04'3617.0
2016-Jul-18 00:26N 49°45' W 127°47'3 7.9
2016-Jul-18 00:00N 49°48' W 127°48'3919.5 300 / 111014.710.8 1.014.513.615.0
2016-Jul-17 22:00N 50°12' W 128°36'14618.2 320 / 141015.6 5.4 0.514.513.615.0
2016-Jul-17 14:00N 51°48' W 131°30'35314.7 330 / 231018.610.8 1.514.512.713.0
2016-Jul-16 14:00N 57°36' W 133°12'   130 / 141022.4 5.4 15.514.613.0
2016-Jul-14 02:00N 55°54' W 132°30'   330 / 41024.3 5.4 0.517.015.315.0
Track history (hours):
 
Tides and Currents Weather Stations Pressure Air Temp Water Temp Dewpoint Dewpoint Depression Visibility Wind Speed Wind Dir Waves Ship Positions

Grand Princess

Operator: Princess Cruises

Last reported at 2016-Jul-24 02:00 UTC. Time now 2016-Jul-24 04:50 UTC.
Position N 55°54' W 132°30'.

Length 289.5 m; beam 36 m; draft 8.5 m.

Type: Ship. MMSI: 310327000.

Wind from 140 at 11 knots

Waves 0.5 meters (2 feet), 1 second period

Barometer 1012.3 mb
Air temperature 15.0 ° C
Visibility: greater than 5.4 NM
Dewpoint 13.2 ° C
Water temperature 14.0 ° C

Date/timePositionNaut miles runAvg speedWind from/ knotsBaromVisibWave heightAir tempDewpointWater temp
2016-Jul-24 02:00N 55°54' W 132°30'81 5.4 140 / 111012.3 5.4 0.515.013.214.0
2016-Jul-23 11:00N 54°48' W 131°06'22318.6 1017.010.8 13.011.114.0
2016-Jul-22 23:00N 51°12' W 129°36'21319.4 1023.110.8 0.515.011.316.0
2016-Jul-22 12:00N 47°48' W 128°00'2512.7 310 / 111022.2 5.4 0.515.512.818.0
2016-Jul-22 10:00N 47°24' W 127°48'2035.4 1022.110.8 0.515.512.818.0
2016-Jul-22 09:26N 47°05' W 127°40'9719.2
2016-Jul-22 04:24N 45°33' W 126°58'1918.9
2016-Jul-22 03:24N 45°15' W 126°50'3719.1
2016-Jul-22 01:29N 44°40' W 126°34'5616.0
2016-Jul-21 22:00N 43°48' W 126°06'23420.2 1021.410.8 0.515.514.618.0
2016-Jul-21 10:25N 40°04' W 124°35'1024.4
2016-Jul-21 10:00N 39°54' W 124°30'613.7 350 / 231017.610.8 3.013.011.112.0
2016-Jul-21 09:34N 39°48' W 124°27'5518.4
2016-Jul-21 06:33N 38°57' W 124°02'1918.8
2016-Jul-21 05:33N 38°41' W 123°50'1918.9
2016-Jul-21 04:33N 38°25' W 123°36'1918.7
2016-Jul-21 03:33N 38°10' W 123°21'1818.4
2016-Jul-21 02:33N 37°57' W 123°05'1818.3
2016-Jul-21 01:34N 37°48' W 122°45'1111.1
2016-Jul-21 00:33N 37°48' W 122°31'6 5.5
2016-Jul-20 23:32N 37°48' W 122°24'0 0.0
2016-Jul-20 22:32N 37°48' W 122°24'0 0.0
2016-Jul-20 21:31N 37°48' W 122°24'0 0.0
2016-Jul-20 20:31N 37°48' W 122°24'0 0.0
2016-Jul-20 19:31N 37°48' W 122°24'0 0.0
2016-Jul-20 18:33N 37°48' W 122°24'0 0.0
2016-Jul-20 17:33N 37°48' W 122°24'0 0.0
2016-Jul-20 16:32N 37°48' W 122°24'0 0.0
2016-Jul-20 15:32N 37°48' W 122°24'0 0.0
2016-Jul-20 14:31N 37°48' W 122°24'0 0.1
2016-Jul-20 13:33N 37°48' W 122°24'7 6.8
2016-Jul-20 12:33N 37°47' W 122°32'1212.0
2016-Jul-20 11:33N 37°47' W 122°48'1616.2
2016-Jul-20 10:33N 37°55' W 123°05'1717.5
2016-Jul-20 09:34N 38°07' W 123°21'1717.2
2016-Jul-20 08:33N 38°21' W 123°34'1717.4
2016-Jul-20 07:33N 38°36' W 123°47'1917.6
2016-Jul-20 06:28N 38°52' W 123°60'38919.5
2016-Jul-19 10:33N 45°17' W 125°08'2120.8
2016-Jul-19 09:34N 45°38' W 125°08'2120.9
2016-Jul-19 08:33N 45°59' W 125°10'2020.5
2016-Jul-19 07:34N 46°19' W 125°11'10420.9
2016-Jul-19 02:33N 48°03' W 125°18'5 8.4
2016-Jul-19 02:00N 48°06' W 125°12'1739.7 170 / 121016.110.8 0.515.514.615.0
2016-Jul-19 01:33N 48°23' W 125°08'1818.4
2016-Jul-19 00:33N 48°30' W 124°43'2120.8
2016-Jul-18 23:33N 48°23' W 124°14'2019.5
2016-Jul-18 22:33N 48°16' W 123°46'1414.4
2016-Jul-18 21:33N 48°21' W 123°26'4 3.6
2016-Jul-18 20:25N 48°25' W 123°24'0 0.0
2016-Jul-18 19:31N 48°25' W 123°24'0 0.0
2016-Jul-18 18:33N 48°25' W 123°24'0 0.0
2016-Jul-18 17:33N 48°25' W 123°24'0 0.0
2016-Jul-18 16:32N 48°25' W 123°24'0 0.0
2016-Jul-18 15:32N 48°25' W 123°24'0 0.0
2016-Jul-18 14:32N 48°25' W 123°24'0 0.2
2016-Jul-18 13:33N 48°25' W 123°24'1111.1
2016-Jul-18 12:33N 48°14' W 123°28'1514.5
2016-Jul-18 11:33N 48°13' W 123°50'1515.5
2016-Jul-18 10:33N 48°19' W 124°12'1615.9
2016-Jul-18 09:33N 48°25' W 124°33'1615.7
2016-Jul-18 08:31N 48°29' W 124°57'1515.7
2016-Jul-18 07:34N 48°33' W 125°19'1616.4
2016-Jul-18 06:34N 48°42' W 125°40'1616.4
2016-Jul-18 05:34N 48°52' W 125°60'1717.0
2016-Jul-18 04:33N 49°02' W 126°21'1717.2
2016-Jul-18 03:34N 49°11' W 126°42'1817.4
2016-Jul-18 02:32N 49°22' W 127°04'3617.0
2016-Jul-18 00:26N 49°45' W 127°47'3 7.9
2016-Jul-18 00:00N 49°48' W 127°48'3919.5 300 / 111014.710.8 1.014.513.615.0
2016-Jul-17 22:00N 50°12' W 128°36'14618.2 320 / 141015.6 5.4 0.514.513.615.0
2016-Jul-17 14:00N 51°48' W 131°30'35314.7 330 / 231018.610.8 1.514.512.713.0
2016-Jul-16 14:00N 57°36' W 133°12'   130 / 141022.4 5.4 15.514.613.0
2016-Jul-14 02:00N 55°54' W 132°30'   330 / 41024.3 5.4 0.517.015.315.0

Dump ship's entire track history